Time;durP1;ratioP1;P1;durP2;ratioP2;P2;SDS_P1;SDS_P2;PMS_P1;PMS_P2;Temp;Humidity;BMP_temperature;BMP_pressure;BME280_temperature;BME280_humidity;BME280_pressure;Samples;Min_cycle;Max_cycle;Signal;HPM_P1;HPM_P2
2024/01/15 00:02:16;;;;;;;73.88;33.03;;;;;;;;;;4968897;28;20029;-73
2024/01/15 00:04:41;;;;;;;67.25;31.70;;;;;;;;;;4967816;28;20485;-74
2024/01/15 00:07:07;;;;;;;70.80;32.90;;;;;;;;;;4986232;28;20032;-73
2024/01/15 00:09:33;;;;;;;75.90;33.05;;;;;;;;;;4968829;28;20026;-73
2024/01/15 00:11:59;;;;;;;70.63;31.58;;;;;;;;;;4986039;28;20034;-74
2024/01/15 00:14:24;;;;;;;61.97;30.15;;;;;;;;;;4986282;28;20030;-73
2024/01/15 00:16:51;;;;;;;67.32;29.75;;;;;;;;;;4986991;28;20018;-74
2024/01/15 00:19:16;;;;;;;67.10;31.02;;;;;;;;;;4965409;28;20027;-74
2024/01/15 00:21:42;;;;;;;64.78;29.08;;;;;;;;;;4986239;28;20048;-74
2024/01/15 00:24:07;;;;;;;83.15;35.35;;;;;;;;;;4988685;28;20018;-73
2024/01/15 00:26:33;;;;;;;65.57;29.70;;;;;;;;;;4970210;28;20053;-74
2024/01/15 00:28:58;;;;;;;70.05;31.35;;;;;;;;;;4985920;28;20899;-74
2024/01/15 00:31:23;;;;;;;72.03;30.80;;;;;;;;;;4988166;28;20026;-74
2024/01/15 00:33:49;;;;;;;65.50;29.30;;;;;;;;;;4985541;28;20436;-74
2024/01/15 00:36:14;;;;;;;62.15;28.50;;;;;;;;;;4987585;28;20264;-74
2024/01/15 00:38:40;;;;;;;64.47;28.95;;;;;;;;;;4984324;28;20038;-74
2024/01/15 00:41:05;;;;;;;1999.90;800.70;;;;;;;;;;4969103;28;20409;-74
2024/01/15 00:43:30;;;;;;;84.22;37.45;;;;;;;;;;4986367;28;20034;-73
2024/01/15 00:45:56;;;;;;;82.40;35.92;;;;;;;;;;4967214;28;20035;-72
2024/01/15 00:48:21;;;;;;;85.60;36.33;;;;;;;;;;4969400;28;20038;-72
2024/01/15 00:50:46;;;;;;;82.93;34.67;;;;;;;;;;4983928;28;20026;-75
2024/01/15 00:53:12;;;;;;;70.85;32.25;;;;;;;;;;4971622;28;20038;-74
2024/01/15 00:55:37;;;;;;;71.80;31.55;;;;;;;;;;4985927;28;20065;-74
2024/01/15 00:58:03;;;;;;;61.15;28.63;;;;;;;;;;4983991;28;20023;-73
2024/01/15 01:00:28;;;;;;;65.07;28.23;;;;;;;;;;4968552;28;20037;-71
2024/01/15 01:02:53;;;;;;;58.78;27.60;;;;;;;;;;4983662;28;20109;-74
2024/01/15 01:05:19;;;;;;;58.92;26.80;;;;;;;;;;4969618;28;20038;-73
2024/01/15 01:07:44;;;;;;;58.55;26.25;;;;;;;;;;4984755;28;20034;-74
2024/01/15 01:10:09;;;;;;;57.50;24.67;;;;;;;;;;4984612;28;20042;-74
2024/01/15 01:12:35;;;;;;;56.30;24.30;;;;;;;;;;4985136;28;20766;-74
2024/01/15 01:15:00;;;;;;;56.03;25.38;;;;;;;;;;4967518;28;20290;-74
2024/01/15 01:17:26;;;;;;;57.88;25.52;;;;;;;;;;4984368;28;20021;-74
2024/01/15 01:19:51;;;;;;;59.13;25.02;;;;;;;;;;4984399;28;20038;-74
2024/01/15 01:22:16;;;;;;;57.17;24.97;;;;;;;;;;4984229;28;20473;-73
2024/01/15 01:24:41;;;;;;;55.30;26.07;;;;;;;;;;4967836;28;20295;-74
2024/01/15 01:27:07;;;;;;;60.60;26.60;;;;;;;;;;4986175;28;20895;-73
2024/01/15 01:29:32;;;;;;;49.80;23.85;;;;;;;;;;4986217;28;20268;-73
2024/01/15 01:31:57;;;;;;;50.90;23.33;;;;;;;;;;4983452;28;20041;-74
2024/01/15 01:34:23;;;;;;;51.15;24.00;;;;;;;;;;4988309;28;20053;-74
2024/01/15 01:36:48;;;;;;;52.92;24.77;;;;;;;;;;4984022;28;20057;-74
2024/01/15 01:39:13;;;;;;;49.92;23.42;;;;;;;;;;4969630;28;20034;-74
2024/01/15 01:41:39;;;;;;;51.97;23.42;;;;;;;;;;4984073;28;20501;-74
2024/01/15 01:44:04;;;;;;;50.38;22.88;;;;;;;;;;4987161;28;20034;-74
2024/01/15 01:46:30;;;;;;;46.97;22.20;;;;;;;;;;4986475;28;20035;-73
2024/01/15 01:48:55;;;;;;;47.47;22.70;;;;;;;;;;4984981;28;20034;-74
2024/01/15 01:51:22;;;;;;;44.85;21.83;;;;;;;;;;4968821;28;20563;-73
2024/01/15 01:53:48;;;;;;;49.08;21.98;;;;;;;;;;4984447;28;20096;-72
2024/01/15 01:56:14;;;;;;;47.90;22.95;;;;;;;;;;4985326;28;20472;-72
2024/01/15 01:58:39;;;;;;;48.60;22.58;;;;;;;;;;4973403;28;20544;-72
2024/01/15 02:01:05;;;;;;;47.00;21.77;;;;;;;;;;4971641;28;20026;-73
2024/01/15 02:03:30;;;;;;;50.05;23.13;;;;;;;;;;4990025;28;20057;-73
2024/01/15 02:05:56;;;;;;;49.03;22.75;;;;;;;;;;4987210;28;20477;-73
2024/01/15 02:08:21;;;;;;;48.20;22.15;;;;;;;;;;4971580;28;20030;-73
2024/01/15 02:10:47;;;;;;;46.00;21.55;;;;;;;;;;4986472;28;20034;-72
2024/01/15 02:13:12;;;;;;;43.83;21.48;;;;;;;;;;4990094;28;20030;-71
2024/01/15 02:15:37;;;;;;;43.97;20.83;;;;;;;;;;4989340;28;20027;-73
2024/01/15 02:18:04;;;;;;;47.67;20.53;;;;;;;;;;4970757;28;20062;-72
2024/01/15 02:20:30;;;;;;;42.50;18.98;;;;;;;;;;4987633;28;20283;-73
2024/01/15 02:23:10;;;;;;;41.30;18.95;;;;;;;;;;4985524;28;20382;-73
2024/01/15 02:25:35;;;;;;;39.88;18.38;;;;;;;;;;4987294;28;20392;-73
2024/01/15 02:28:01;;;;;;;36.42;17.85;;;;;;;;;;4969462;28;20050;-73
2024/01/15 02:30:27;;;;;;;40.78;17.92;;;;;;;;;;4989084;28;20014;-73
2024/01/15 02:32:52;;;;;;;36.83;17.40;;;;;;;;;;4971701;28;20038;-73
2024/01/15 02:35:18;;;;;;;40.45;17.23;;;;;;;;;;4986882;28;20031;-73
2024/01/15 02:37:43;;;;;;;36.97;17.30;;;;;;;;;;4989725;28;20030;-72
2024/01/15 02:40:08;;;;;;;37.55;16.33;;;;;;;;;;4986294;28;20053;-73
2024/01/15 02:42:33;;;;;;;40.17;17.13;;;;;;;;;;4988116;28;20034;-74
2024/01/15 02:44:59;;;;;;;38.17;17.43;;;;;;;;;;4986420;28;20022;-74
2024/01/15 02:47:24;;;;;;;36.95;17.13;;;;;;;;;;4986542;28;20280;-75
2024/01/15 02:49:50;;;;;;;37.30;17.53;;;;;;;;;;4971413;28;20133;-74
2024/01/15 02:52:15;;;;;;;38.67;17.13;;;;;;;;;;4971398;28;20272;-74
2024/01/15 02:54:40;;;;;;;39.08;17.70;;;;;;;;;;4986968;28;20480;-74
2024/01/15 02:57:06;;;;;;;37.73;16.97;;;;;;;;;;4987966;28;20026;-74
2024/01/15 02:59:31;;;;;;;38.38;17.10;;;;;;;;;;4985665;28;20314;-74
2024/01/15 03:01:56;;;;;;;37.97;16.50;;;;;;;;;;4986951;28;20114;-75
2024/01/15 03:04:22;;;;;;;36.50;16.90;;;;;;;;;;4969763;28;20389;-74
2024/01/15 03:06:47;;;;;;;38.38;16.15;;;;;;;;;;4986535;28;20089;-74
2024/01/15 03:09:12;;;;;;;38.53;17.55;;;;;;;;;;4987135;28;20030;-74
2024/01/15 03:11:39;;;;;;;33.45;15.88;;;;;;;;;;4986705;28;20101;-73
2024/01/15 03:14:04;;;;;;;36.75;17.15;;;;;;;;;;4984150;28;20515;-73
2024/01/15 03:16:29;;;;;;;31.95;15.50;;;;;;;;;;4986953;28;20030;-74
2024/01/15 03:18:54;;;;;;;34.45;16.05;;;;;;;;;;4984843;28;20037;-74
2024/01/15 03:21:20;;;;;;;33.08;15.40;;;;;;;;;;4983791;28;20428;-74
2024/01/15 03:23:45;;;;;;;32.88;15.25;;;;;;;;;;4968483;28;20030;-74
2024/01/15 03:26:10;;;;;;;35.03;15.50;;;;;;;;;;4987619;28;20113;-74
2024/01/15 03:28:35;;;;;;;34.37;15.50;;;;;;;;;;4968862;28;20034;-74
2024/01/15 03:31:01;;;;;;;30.13;15.13;;;;;;;;;;4967127;28;20326;-74
2024/01/15 03:33:27;;;;;;;35.10;15.23;;;;;;;;;;4984966;28;20288;-74
2024/01/15 03:35:52;;;;;;;35.57;15.80;;;;;;;;;;4986311;28;20388;-74
2024/01/15 03:38:18;;;;;;;32.22;15.98;;;;;;;;;;4968880;28;20272;-74
2024/01/15 03:40:43;;;;;;;41.60;15.75;;;;;;;;;;4985735;28;20042;-74
2024/01/15 03:43:08;;;;;;;35.95;15.85;;;;;;;;;;4987503;28;20066;-74
2024/01/15 03:45:34;;;;;;;32.65;14.30;;;;;;;;;;4987180;28;20042;-74
2024/01/15 03:47:59;;;;;;;33.92;15.23;;;;;;;;;;4985710;28;20034;-74
2024/01/15 03:50:25;;;;;;;31.10;14.45;;;;;;;;;;4986775;28;20034;-74
2024/01/15 03:52:50;;;;;;;33.05;15.07;;;;;;;;;;4985012;28;20469;-74
2024/01/15 03:55:15;;;;;;;29.80;13.40;;;;;;;;;;4987721;28;20030;-74
2024/01/15 03:57:41;;;;;;;30.88;13.80;;;;;;;;;;4984750;28;20077;-74
2024/01/15 04:00:07;;;;;;;31.93;13.93;;;;;;;;;;4988111;28;20026;-74
2024/01/15 04:02:32;;;;;;;30.48;14.73;;;;;;;;;;4983447;28;20846;-74
2024/01/15 04:04:58;;;;;;;29.17;14.02;;;;;;;;;;4987029;28;20105;-74
2024/01/15 04:07:23;;;;;;;32.22;14.35;;;;;;;;;;4985770;28;20504;-74
2024/01/15 04:09:48;;;;;;;31.37;14.33;;;;;;;;;;4985388;28;20030;-74
2024/01/15 04:12:13;;;;;;;30.93;14.17;;;;;;;;;;4984678;28;20372;-74
2024/01/15 04:14:39;;;;;;;29.98;14.02;;;;;;;;;;4986733;28;20272;-74
2024/01/15 04:17:04;;;;;;;27.70;13.55;;;;;;;;;;4987075;28;20033;-75
2024/01/15 04:19:29;;;;;;;27.92;12.80;;;;;;;;;;4968986;28;20504;-74
2024/01/15 04:21:55;;;;;;;30.58;13.07;;;;;;;;;;4970217;28;20089;-73
2024/01/15 04:24:20;;;;;;;28.70;13.90;;;;;;;;;;4985137;28;20015;-74
2024/01/15 04:26:45;;;;;;;30.53;13.90;;;;;;;;;;4964446;28;20293;-74
2024/01/15 04:29:11;;;;;;;29.38;13.13;;;;;;;;;;4968746;28;20303;-74
2024/01/15 04:31:36;;;;;;;25.98;12.95;;;;;;;;;;4967023;28;20035;-74
2024/01/15 04:34:01;;;;;;;30.30;13.43;;;;;;;;;;4967735;28;20062;-74
2024/01/15 04:36:26;;;;;;;30.60;13.83;;;;;;;;;;4965732;28;20029;-74
2024/01/15 04:38:52;;;;;;;28.90;13.27;;;;;;;;;;4967705;28;20279;-74
2024/01/15 04:41:17;;;;;;;28.97;13.73;;;;;;;;;;4965243;28;20344;-74
2024/01/15 04:43:42;;;;;;;28.10;12.77;;;;;;;;;;4966716;28;20269;-73
2024/01/15 04:46:08;;;;;;;26.98;12.93;;;;;;;;;;4964515;28;20066;-74
2024/01/15 04:48:33;;;;;;;28.45;13.27;;;;;;;;;;4966006;28;20404;-74
2024/01/15 04:50:58;;;;;;;26.35;12.55;;;;;;;;;;4965444;28;20035;-74
2024/01/15 04:53:24;;;;;;;28.70;12.93;;;;;;;;;;4965682;28;20391;-74
2024/01/15 04:55:49;;;;;;;27.30;12.90;;;;;;;;;;4963630;28;20273;-74
2024/01/15 04:58:14;;;;;;;27.08;12.80;;;;;;;;;;4966016;28;20068;-73
2024/01/15 05:00:40;;;;;;;24.57;12.83;;;;;;;;;;4962671;28;20389;-74
2024/01/15 05:03:05;;;;;;;28.35;13.25;;;;;;;;;;4964804;28;20303;-73
2024/01/15 05:05:30;;;;;;;26.53;12.50;;;;;;;;;;4964521;28;20058;-74
2024/01/15 05:07:55;;;;;;;30.55;13.27;;;;;;;;;;4966334;28;20759;-75
2024/01/15 05:10:21;;;;;;;27.90;12.73;;;;;;;;;;4965401;28;20030;-74
2024/01/15 05:12:46;;;;;;;27.87;12.80;;;;;;;;;;4967052;28;20277;-74
2024/01/15 05:15:11;;;;;;;27.08;12.75;;;;;;;;;;4967311;28;20395;-73
2024/01/15 05:17:37;;;;;;;26.55;12.60;;;;;;;;;;4966840;28;20573;-74
2024/01/15 05:20:03;;;;;;;26.55;12.82;;;;;;;;;;4965261;28;20520;-74
2024/01/15 05:22:28;;;;;;;24.95;12.52;;;;;;;;;;4967136;28;20037;-74
2024/01/15 05:24:53;;;;;;;22.63;11.40;;;;;;;;;;4966898;28;20054;-73
2024/01/15 05:27:19;;;;;;;23.73;11.93;;;;;;;;;;4973032;28;20445;-73
2024/01/15 05:29:44;;;;;;;25.88;12.15;;;;;;;;;;4987352;28;20511;-73
2024/01/15 05:32:09;;;;;;;25.47;12.33;;;;;;;1.15;nan;99273.88;4988698;28;20077;-73
2024/01/15 05:34:35;;;;;;;27.60;12.38;;;;;;;;;;4975903;28;20287;-73
2024/01/15 05:37:00;;;;;;;25.23;11.60;;;;;;;;;;4970818;28;20076;-74
2024/01/15 05:39:25;;;;;;;25.80;11.63;;;;;;;;;;4975505;28;20166;-73
2024/01/15 05:41:51;;;;;;;23.75;11.63;;;;;;;;;;4989015;28;20117;-74
2024/01/15 05:44:16;;;;;;;24.33;12.02;;;;;;;;;;4990376;28;20026;-74
2024/01/15 05:46:41;;;;;;;24.30;11.25;;;;;;;;;;4989320;28;20108;-74
2024/01/15 05:49:07;;;;;;;22.00;10.90;;;;;;;;;;4990205;28;20137;-73
2024/01/15 05:51:32;;;;;;;21.33;11.00;;;;;;;;;;4985765;28;20281;-73
2024/01/15 05:53:57;;;;;;;20.65;10.80;;;;;;;;;;4972163;28;20071;-74
2024/01/15 05:56:24;;;;;;;25.03;11.50;;;;;;;;;;4987855;28;20085;-74
2024/01/15 05:58:49;;;;;;;21.48;10.52;;;;;;;;;;4985027;28;20272;-73
2024/01/15 06:01:14;;;;;;;22.90;11.38;;;;;;;;;;4984628;28;20054;-73
2024/01/15 06:03:40;;;;;;;22.48;11.10;;;;;;;;;;4984492;28;20030;-73
2024/01/15 06:06:05;;;;;;;22.77;11.40;;;;;;;;;;4985233;28;20069;-74
2024/01/15 06:08:30;;;;;;;23.52;11.68;;;;;;;;;;4969598;28;20346;-75
2024/01/15 06:10:56;;;;;;;23.75;10.95;;;;;;;;;;4988172;28;20099;-73
2024/01/15 06:13:21;;;;;;;20.58;10.10;;;;;;;;;;4984805;28;20041;-74
2024/01/15 06:15:47;;;;;;;21.92;10.73;;;;;;;;;;4970775;28;20038;-74
2024/01/15 06:18:12;;;;;;;20.15;9.93;;;;;;;;;;4970313;28;20030;-73
2024/01/15 06:20:38;;;;;;;19.58;10.32;;;;;;;;;;4965759;28;20508;-73
2024/01/15 06:23:03;;;;;;;20.42;9.65;;;;;;;;;;4988768;28;20030;-73
2024/01/15 06:25:29;;;;;;;22.77;10.50;;;;;;;;;;4983827;28;20030;-73
2024/01/15 06:27:54;;;;;;;18.03;9.70;;;;;;;;;;4988098;28;20046;-73
2024/01/15 06:30:19;;;;;;;20.02;10.13;;;;;;;;;;4969619;28;20284;-73
2024/01/15 06:32:44;;;;;;;19.15;9.48;;;;;;;;;;4988193;28;20045;-72
2024/01/15 06:35:11;;;;;;;19.73;9.77;;;;;;;;;;4988183;28;20034;-73
2024/01/15 06:37:36;;;;;;;18.83;9.55;;;;;;;;;;4989928;28;20272;-72
2024/01/15 06:40:03;;;;;;;21.25;10.00;;;;;;;;;;4966382;28;20042;-73
2024/01/15 06:42:28;;;;;;;20.40;9.50;;;;;;;;;;4984973;28;20445;-74
2024/01/15 06:44:53;;;;;;;18.35;9.48;;;;;;;;;;4971260;28;20122;-74
2024/01/15 06:47:18;;;;;;;18.70;9.05;;;;;;;;;;4969145;28;20038;-74
2024/01/15 06:49:44;;;;;;;21.10;9.15;;;;;;;;;;4987375;28;20028;-74
2024/01/15 06:52:09;;;;;;;19.23;9.43;;;;;;;;;;4985539;28;20030;-74
2024/01/15 06:54:35;;;;;;;19.33;8.95;;;;;;;;;;4970103;28;20030;-73
2024/01/15 06:57:00;;;;;;;19.30;9.95;;;;;;;;;;4983376;28;20026;-72
2024/01/15 06:59:25;;;;;;;17.40;8.63;;;;;;;;;;4985662;28;20030;-72
2024/01/15 07:01:50;;;;;;;16.40;7.80;;;;;;;;;;4985895;28;20073;-71
2024/01/15 07:04:16;;;;;;;18.30;9.60;;;;;;;;;;4983858;28;20279;-73
2024/01/15 07:06:41;;;;;;;19.65;9.25;;;;;;;;;;4985679;28;20695;-68
2024/01/15 07:09:07;;;;;;;17.83;9.20;;;;;;;;;;4979041;28;20030;-68
2024/01/15 07:11:33;;;;;;;17.30;8.40;;;;;;;;;;4983604;28;20058;-69
2024/01/15 07:13:58;;;;;;;17.48;8.27;;;;;;;;;;4969267;28;20058;-69
2024/01/15 07:16:23;;;;;;;17.60;9.03;;;;;;;;;;4987214;28;20034;-68
2024/01/15 07:18:49;;;;;;;20.52;9.05;;;;;;;;;;4985328;28;20272;-68
2024/01/15 07:21:14;;;;;;;21.07;8.97;;;;;;;;;;4982449;28;20080;-68
2024/01/15 07:23:40;;;;;;;17.65;9.55;;;;;;;;;;4980199;28;20285;-69
2024/01/15 07:26:05;;;;;;;22.67;10.00;;;;;;;;;;4983486;28;20038;-69
2024/01/15 07:28:30;;;;;;;18.57;9.57;;;;;;;;;;4981196;28;20054;-69
2024/01/15 07:30:56;;;;;;;18.20;9.13;;;;;;;;;;4966663;28;20284;-68
2024/01/15 07:33:21;;;;;;;18.13;8.68;;;;;;;;;;4985191;28;20041;-69
2024/01/15 07:35:46;;;;;;;15.82;8.45;;;;;;;;;;4969839;28;20097;-69
2024/01/15 07:38:12;;;;;;;16.35;7.82;;;;;;;;;;4985781;28;20034;-69
2024/01/15 07:40:37;;;;;;;18.02;8.32;;;;;;;;;;4985521;28;20384;-69
2024/01/15 07:43:02;;;;;;;17.42;9.07;;;;;;;;;;4984519;28;20081;-68
2024/01/15 07:45:28;;;;;;;16.30;8.25;;;;;;;;;;4985976;28;20030;-69
2024/01/15 07:47:53;;;;;;;17.17;8.13;;;;;;;;;;4983507;28;20034;-67
2024/01/15 07:50:18;;;;;;;16.92;7.68;;;;;;;;;;4985167;28;20030;-67
2024/01/15 07:52:44;;;;;;;16.10;7.70;;;;;;;;;;4984735;28;20030;-67
2024/01/15 07:55:09;;;;;;;14.50;7.53;;;;;;;;;;4982896;28;20078;-68
2024/01/15 07:57:35;;;;;;;16.77;7.97;;;;;;;;;;4985959;28;20041;-68
2024/01/15 08:00:01;;;;;;;18.50;7.70;;;;;;;;;;4985529;28;20532;-69
2024/01/15 08:02:27;;;;;;;16.45;8.02;;;;;;;;;;4982992;28;20037;-67
2024/01/15 08:04:52;;;;;;;17.83;8.25;;;;;;;;;;4985156;28;20026;-68
2024/01/15 08:07:17;;;;;;;15.77;8.63;;;;;;;;;;4985043;28;20131;-69
2024/01/15 08:09:43;;;;;;;17.35;7.15;;;;;;;;;;4989350;28;20547;-69
2024/01/15 08:12:09;;;;;;;17.73;9.07;;;;;;;;;;4986333;28;20042;-68
2024/01/15 08:14:35;;;;;;;15.45;7.72;;;;;;;;;;4984256;28;20092;-68
2024/01/15 08:17:01;;;;;;;18.55;8.45;;;;;;;;;;4982354;28;20042;-68
2024/01/15 08:19:26;;;;;;;14.70;8.27;;;;;;;;;;4967293;28;20473;-68
2024/01/15 08:21:52;;;;;;;14.57;7.70;;;;;;;;;;4984223;28;20030;-67
2024/01/15 08:24:18;;;;;;;14.52;8.02;;;;;;;;;;4986283;28;20267;-68
2024/01/15 08:26:43;;;;;;;18.75;8.57;;;;;;;;;;4982965;28;20037;-67
2024/01/15 08:29:08;;;;;;;15.98;7.50;;;;;;;;;;4984434;28;20085;-68
2024/01/15 08:31:34;;;;;;;16.55;7.88;;;;;;;;;;4986035;28;20034;-69
2024/01/15 08:34:01;;;;;;;18.52;8.40;;;;;;;;;;4979458;28;20477;-69
2024/01/15 08:36:26;;;;;;;19.23;8.35;;;;;;;;;;4982552;28;20029;-68
2024/01/15 08:38:52;;;;;;;18.73;9.10;;;;;;;;;;4982099;28;20034;-68
2024/01/15 08:41:17;;;;;;;16.02;7.60;;;;;;;;;;4981863;28;20026;-68
2024/01/15 08:43:42;;;;;;;18.33;8.63;;;;;;;;;;4985624;28;20026;-68
2024/01/15 08:46:08;;;;;;;13.25;7.43;;;;;;;;;;4983945;28;20334;-68
2024/01/15 08:48:33;;;;;;;16.05;7.82;;;;;;;;;;4982492;28;20110;-68
2024/01/15 08:50:58;;;;;;;19.20;8.55;;;;;;;;;;4959123;28;20027;-67
2024/01/15 08:53:23;;;;;;;15.82;8.07;;;;;;;;;;4982649;28;20038;-69
2024/01/15 08:55:49;;;;;;;16.58;8.18;;;;;;;;;;4963719;28;20033;-68
2024/01/15 08:58:15;;;;;;;16.95;8.02;;;;;;;;;;4980603;28;20089;-67
2024/01/15 09:00:40;;;;;;;16.05;8.20;;;;;;;;;;4979391;28;20583;-68
2024/01/15 09:03:05;;;;;;;18.75;8.27;;;;;;;;;;4983332;28;20049;-68
2024/01/15 09:05:31;;;;;;;19.70;8.63;;;;;;;;;;4983215;28;20515;-68
2024/01/15 09:07:56;;;;;;;16.98;8.88;;;;;;;;;;4988964;28;20037;-67
2024/01/15 09:10:21;;;;;;;15.25;8.20;;;;;;;;;;4988954;28;20030;-68
2024/01/15 09:12:48;;;;;;;21.83;9.27;;;;;;;;;;4969534;28;20034;-68
2024/01/15 09:15:14;;;;;;;20.55;10.32;;;;;;;;;;4987000;28;20030;-68
2024/01/15 09:17:39;;;;;;;30.02;15.55;;;;;;;;;;4970648;28;20384;-69
2024/01/15 09:20:05;;;;;;;31.27;14.90;;;;;;;;;;4990543;28;20022;-68
2024/01/15 09:22:31;;;;;;;19.08;9.55;;;;;;;3.24;nan;99252.13;4987165;28;20808;-68
2024/01/15 09:24:56;;;;;;;18.20;8.77;;;;;;;;;;4973741;28;20750;-68
2024/01/15 09:27:22;;;;;;;17.10;9.07;;;;;;;;;;4968986;28;20129;-68
2024/01/15 09:29:47;;;;;;;17.83;9.10;;;;;;;;;;4969573;28;20030;-68
2024/01/15 09:32:12;;;;;;;20.35;9.98;;;;;;;;;;4967224;28;20029;-69
2024/01/15 09:34:38;;;;;;;25.30;10.85;;;;;;;;;;4971771;28;20065;-72
2024/01/15 09:37:04;;;;;;;23.63;11.57;;;;;;;;;;4986381;28;20018;-72
2024/01/15 09:39:30;;;;;;;22.50;10.95;;;;;;;;;;4989792;28;20092;-71
2024/01/15 09:41:56;;;;;;;21.27;10.68;;;;;;;;;;4987935;28;20665;-71
2024/01/15 09:44:21;;;;;;;22.80;10.65;;;;;;;;;;4973510;28;20049;-71
2024/01/15 09:46:50;;;;;;;22.10;11.15;;;;;;;;;;4987659;28;20389;-70
2024/01/15 09:49:15;;;;;;;20.40;10.27;;;;;;;;;;4988448;28;20153;-71
2024/01/15 09:51:41;;;;;;;19.25;10.55;;;;;;;;;;4987907;28;20125;-71
2024/01/15 09:54:06;;;;;;;19.05;10.27;;;;;;;;;;4989373;28;20487;-71
2024/01/15 09:56:31;;;;;;;25.55;12.25;;;;;;;;;;4987640;28;20105;-70
2024/01/15 09:58:57;;;;;;;36.85;17.85;;;;;;;;;;4988594;28;20077;-71
2024/01/15 10:01:22;;;;;;;25.63;14.23;;;;;;;;;;4989484;28;20438;-71
2024/01/15 10:03:48;;;;;;;21.20;11.68;;;;;;;;;;4988915;28;20046;-71
2024/01/15 10:06:17;;;;;;;24.42;12.63;;;;;;;;;;4987980;28;20026;-71
2024/01/15 10:08:43;;;;;;;23.08;11.60;;;;;;;;;;4972576;28;20101;-72
2024/01/15 10:11:09;;;;;;;22.05;11.40;;;;;;;;;;4986606;28;20036;-71
2024/01/15 10:13:35;;;;;;;24.13;12.17;;;;;;;;;;4988708;28;20117;-72
2024/01/15 10:16:02;;;;;;;29.48;13.27;;;;;;;;;;4987441;28;20284;-70
2024/01/15 10:18:28;;;;;;;22.75;11.98;;;;;;;;;;4986039;28;20062;-72
2024/01/15 10:20:53;;;;;;;25.98;12.40;;;;;;;;;;4971367;28;20077;-71
2024/01/15 10:23:19;;;;;;;24.67;12.45;;;;;;;;;;4987533;28;20469;-71
2024/01/15 10:25:44;;;;;;;27.17;13.07;;;;;;;;;;4971689;28;20060;-71
2024/01/15 10:28:09;;;;;;;28.75;13.15;;;;;;;;;;4970170;28;20129;-71
2024/01/15 10:30:35;;;;;;;27.55;13.88;;;;;;;;;;4988715;28;20030;-71
2024/01/15 10:33:01;;;;;;;28.52;13.75;;;;;;;;;;4990142;28;20026;-72
2024/01/15 10:35:30;;;;;;;33.20;14.60;;;;;;;;;;4987533;28;20117;-71
2024/01/15 10:37:56;;;;;;;30.27;14.20;;;;;;;;;;4988800;28;20515;-71
2024/01/15 10:40:21;;;;;;;27.88;14.80;;;;;;;;;;4970363;28;20033;-71
2024/01/15 10:42:47;;;;;;;27.20;13.95;;;;;;;;;;4988646;28;20030;-70
2024/01/15 10:45:13;;;;;;;29.83;14.20;;;;;;;;;;4986737;28;20389;-72
2024/01/15 10:47:38;;;;;;;30.55;13.82;;;;;;;;;;4987634;28;20039;-71
2024/01/15 10:50:06;;;;;;;26.05;13.40;;;;;;;;;;4987729;28;20051;-72
2024/01/15 10:52:31;;;;;;;26.67;13.57;;;;;;;;;;4987137;28;20100;-72
2024/01/15 10:54:57;;;;;;;31.13;14.45;;;;;;;;;;4986822;28;20022;-71
2024/01/15 10:57:23;;;;;;;30.92;14.18;;;;;;;;;;4986546;28;20481;-71
2024/01/15 10:59:48;;;;;;;28.63;13.90;;;;;;;;;;4986895;28;20038;-71
2024/01/15 11:02:14;;;;;;;24.60;13.57;;;;;;;;;;4987056;28;20551;-71
2024/01/15 11:04:40;;;;;;;27.50;13.52;;;;;;;;;;4986185;28;20026;-70
2024/01/15 11:07:05;;;;;;;28.00;13.65;;;;;;;;;;4970025;28;20477;-71
2024/01/15 11:09:31;;;;;;;30.58;13.98;;;;;;;;;;4984449;28;20038;-71
2024/01/15 11:12:17;;;;;;;29.50;14.63;;;;;;;;;;4984592;28;20034;-70
2024/01/15 11:14:45;;;;;;;35.67;15.98;;;;;;;;;;4982379;28;20109;-71
2024/01/15 11:17:12;;;;;;;35.60;16.73;;;;;;;;;;4985542;28;20046;-70
2024/01/15 11:19:47;;;;;;;30.90;14.77;;;;;;;;;;4984549;28;20137;-70
2024/01/15 11:22:33;;;;;;;32.35;15.23;;;;;;;;;;4985782;28;20034;-70
2024/01/15 11:25:02;;;;;;;29.40;14.88;;;;;;;;;;4985772;28;20089;-71
2024/01/15 11:27:44;;;;;;;28.70;14.95;;;;;;;;;;4985912;28;20045;-70
2024/01/15 11:30:12;;;;;;;31.17;15.27;;;;;;;;;;4986372;28;20105;-70
2024/01/15 11:32:41;;;;;;;27.77;14.63;;;;;;;;;;4970403;28;20030;-70
2024/01/15 11:35:08;;;;;;;31.52;15.15;;;;;;;;;;4984820;28;20030;-71
2024/01/15 11:37:52;;;;;;;29.13;14.65;;;;;;;;;;4985814;28;20108;-69
2024/01/15 11:40:21;;;;;;;37.35;18.30;;;;;;;;;;4966768;28;20030;-72
2024/01/15 11:42:52;;;;;;;36.20;16.90;;;;;;;;;;4987712;28;20369;-70
2024/01/15 11:45:18;;;;;;;34.10;16.48;;;;;;;;;;4985633;28;20397;-71
2024/01/15 11:48:02;;;;;;;37.42;17.38;;;;;;;;;;4987018;28;20026;-71
2024/01/15 11:50:29;;;;;;;33.00;15.73;;;;;;;;;;4963105;28;20036;-71
2024/01/15 11:53:00;;;;;;;26.75;14.48;;;;;;;;;;4986074;28;20065;-70
2024/01/15 11:55:36;;;;;;;27.77;14.55;;;;;;;;;;4971278;28;20030;-71
2024/01/15 11:58:03;;;;;;;28.25;13.82;;;;;;;;;;4967010;28;20034;-71
2024/01/15 12:00:28;;;;;;;35.22;17.42;;;;;;;;;;4986650;28;20096;-72
2024/01/15 12:02:54;;;;;;;38.20;18.17;;;;;;;;;;4983854;28;20476;-70
2024/01/15 12:05:20;;;;;;;33.40;16.63;;;;;;;;;;4984913;28;20030;-71
2024/01/15 12:07:47;;;;;;;32.60;16.52;;;;;;;;;;4983814;28;20076;-71
2024/01/15 12:10:18;;;;;;;37.15;18.08;;;;;;;;;;4984828;28;20034;-71
2024/01/15 12:13:01;;;;;;;30.60;16.70;;;;;;;;;;4982202;28;20035;-71
2024/01/15 12:15:29;;;;;;;31.33;16.98;;;;;;;;;;4988276;28;20029;-71
2024/01/15 12:18:02;;;;;;;36.10;18.58;;;;;;;;;;4972615;28;20077;-71
2024/01/15 12:20:28;;;;;;;29.80;17.40;;;;;;;;;;4984661;28;20034;-71
2024/01/15 12:22:55;;;;;;;39.25;20.67;;;;;;;;;;4985111;28;20497;-71
2024/01/15 12:25:20;;;;;;;46.78;24.42;;;;;;;;;;4981494;28;20038;-72
2024/01/15 12:27:46;;;;;;;54.03;27.00;;;;;;;;;;4983364;28;20137;-70
2024/01/15 12:30:11;;;;;;;46.88;24.60;;;;;;;;;;4983479;28;20034;-71
2024/01/15 12:32:37;;;;;;;54.33;27.25;;;;;;;;;;4982045;28;20503;-72
2024/01/15 12:35:02;;;;;;;45.78;24.60;;;;;;;;;;4979990;28;20041;-72
2024/01/15 12:37:29;;;;;;;44.95;24.85;;;;;;;;;;4984924;28;20022;-71
2024/01/15 12:39:54;;;;;;;44.92;23.30;;;;;;;;;;4983360;28;20493;-73
2024/01/15 12:42:21;;;;;;;42.15;21.52;;;;;;;;;;4985814;28;20081;-72
2024/01/15 12:44:46;;;;;;;48.40;21.88;;;;;;;;;;4984659;28;20023;-72
2024/01/15 12:47:12;;;;;;;41.63;21.17;;;;;;;;;;4969118;28;20026;-72
2024/01/15 12:49:37;;;;;;;38.25;20.42;;;;;;;;;;4985567;28;20024;-72
2024/01/15 12:52:03;;;;;;;36.78;20.30;;;;;;;;;;4987528;28;20544;-72
2024/01/15 12:54:28;;;;;;;38.17;20.20;;;;;;;;;;4969431;28;20089;-71
2024/01/15 12:56:53;;;;;;;41.33;20.70;;;;;;;;;;4985396;28;20019;-71
2024/01/15 12:59:18;;;;;;;39.13;21.50;;;;;;;;;;4984756;28;20818;-73
2024/01/15 13:01:45;;;;;;;37.67;20.60;;;;;;;;;;4985133;28;20037;-69
2024/01/15 13:04:10;;;;;;;40.03;21.55;;;;;;;;;;4968239;28;20034;-71
2024/01/15 13:06:36;;;;;;;41.22;22.25;;;;;;;;;;4984864;28;20366;-71
2024/01/15 13:09:05;;;;;;;42.15;22.20;;;;;;;;;;4968404;28;20030;-70
2024/01/15 13:11:30;;;;;;;40.63;21.83;;;;;;;;;;4968161;28;20030;-71
2024/01/15 13:13:56;;;;;;;40.45;21.88;;;;;;;;;;4985812;28;20022;-72
2024/01/15 13:16:21;;;;;;;45.60;24.10;;;;;;;;;;4984114;28;20532;-72
2024/01/15 13:18:47;;;;;;;43.42;22.98;;;;;;;;;;4985900;28;20030;-72
2024/01/15 13:21:12;;;;;;;46.40;24.40;;;;;;;;;;4985272;28;20031;-72
2024/01/15 13:23:38;;;;;;;52.90;28.50;;;;;;;;;;4984656;28;20081;-72
2024/01/15 13:26:03;;;;;;;56.75;29.05;;;;;;;;;;4987027;28;20026;-72
2024/01/15 13:28:28;;;;;;;58.20;29.88;;;;;;;;;;4985604;28;20871;-71
2024/01/15 13:30:54;;;;;;;52.97;28.50;;;;;;;;;;4987255;28;20030;-72
2024/01/15 13:33:19;;;;;;;51.63;27.27;;;;;;;;;;4966789;28;20669;-72
2024/01/15 13:35:45;;;;;;;48.78;26.55;;;;;;;;;;4985987;28;20512;-71
2024/01/15 13:38:11;;;;;;;48.92;27.05;;;;;;;;;;4984262;28;20034;-72
2024/01/15 13:40:36;;;;;;;51.53;26.77;;;;;;;;;;4985977;28;20069;-71
2024/01/15 13:43:01;;;;;;;48.95;25.30;;;;;;;;;;4983667;28;20046;-72
2024/01/15 13:45:27;;;;;;;55.22;27.50;;;;;;;;;;4985714;28;20101;-71
2024/01/15 13:47:52;;;;;;;49.90;26.83;;;;;;;;;;4985845;28;20042;-73
2024/01/15 13:50:17;;;;;;;52.67;26.52;;;;;;;;;;4984846;28;20294;-72
2024/01/15 13:52:42;;;;;;;47.90;26.05;;;;;;;;;;4970366;28;20030;-72
2024/01/15 13:55:08;;;;;;;50.65;25.65;;;;;;;;;;4988228;28;20038;-72
2024/01/15 13:57:34;;;;;;;49.78;26.92;;;;;;;;;;4988274;28;20052;-72
2024/01/15 13:59:59;;;;;;;60.65;31.92;;;;;;;;;;4964630;28;20473;-72
2024/01/15 14:02:25;;;;;;;50.83;27.52;;;;;;;;;;4972984;28;20026;-72
2024/01/15 14:04:50;;;;;;;51.20;25.70;;;;;;;;;;4987538;28;20037;-72
2024/01/15 14:07:15;;;;;;;43.38;23.10;;;;;;;;;;4988402;28;20108;-72
2024/01/15 14:09:41;;;;;;;43.10;23.10;;;;;;;;;;4987644;28;20026;-72
2024/01/15 14:12:07;;;;;;;47.30;24.52;;;;;;;;;;4987910;28;20053;-72